createdAt,value
2019-02-07T00:00:58.352Z,99.15
2019-02-07T00:02:32.715Z,99.80
2019-02-07T00:04:07.086Z,91.57
2019-02-07T00:05:41.449Z,95.70
2019-02-07T00:07:15.851Z,98.92
2019-02-07T00:08:50.208Z,96.28
2019-02-07T00:10:24.574Z,89.83
2019-02-07T00:11:59.337Z,91.57
2019-02-07T00:13:33.729Z,89.00
2019-02-07T00:15:10.242Z,81.47
2019-02-07T00:16:44.679Z,92.90
2019-02-07T00:18:19.045Z,92.30
2019-02-07T00:19:53.425Z,92.42
2019-02-07T00:21:27.880Z,91.35
2019-02-07T00:23:02.280Z,81.72
2019-02-07T00:24:42.998Z,90.97
2019-02-07T00:26:12.741Z,88.53
2019-02-07T00:27:47.109Z,92.45
2019-02-07T00:29:21.503Z,99.97
2019-02-07T00:30:55.817Z,101.60
2019-02-07T00:32:30.184Z,83.62
2019-02-07T00:34:05.096Z,94.85
2019-02-07T00:35:39.476Z,89.58
2019-02-07T00:37:15.456Z,94.90
2019-02-07T00:38:49.936Z,92.50
2019-02-07T00:40:25.829Z,98.87
2019-02-07T00:42:00.217Z,106.97
2019-02-07T00:43:34.584Z,86.72
2019-02-07T00:45:11.521Z,110.52
2019-02-07T00:46:45.884Z,103.75
2019-02-07T00:48:20.258Z,101.90
2019-02-07T00:49:54.928Z,98.42
2019-02-07T00:51:29.300Z,116.40
2019-02-07T00:53:03.685Z,100.07
2019-02-07T00:54:38.056Z,99.30
2019-02-07T00:56:12.532Z,105.32
2019-02-07T00:57:47.077Z,103.50
2019-02-07T00:59:21.451Z,101.27
2019-02-07T01:00:55.819Z,105.33
2019-02-07T01:02:30.503Z,86.78
2019-02-07T01:04:04.897Z,102.53
2019-02-07T01:05:39.365Z,105.97
2019-02-07T01:07:13.736Z,100.58
2019-02-07T01:08:49.626Z,91.57
2019-02-07T01:10:26.083Z,85.43
2019-02-07T01:12:00.480Z,101.18
2019-02-07T01:13:34.863Z,93.67
2019-02-07T01:15:11.369Z,89.75
2019-02-07T01:16:45.731Z,91.90
2019-02-07T01:18:20.100Z,69.10
2019-02-07T01:19:54.464Z,79.20
2019-02-07T01:21:30.453Z,84.35
2019-02-07T01:23:04.916Z,86.90
2019-02-07T01:24:39.284Z,85.42
2019-02-07T01:26:15.227Z,87.55
2019-02-07T01:27:49.884Z,81.65
2019-02-07T01:29:24.250Z,82.85
2019-02-07T01:30:58.641Z,84.77
2019-02-07T01:32:33.006Z,83.35
2019-02-07T01:34:07.364Z,86.12
2019-02-07T01:35:41.730Z,69.50
2019-02-07T01:37:16.174Z,75.50
2019-02-07T01:38:50.548Z,78.43
2019-02-07T01:40:25.225Z,54.48
2019-02-07T01:41:59.601Z,77.00
2019-02-07T01:43:34.133Z,70.00
2019-02-07T01:45:14.453Z,59.75
2019-02-07T01:46:48.865Z,46.83
2019-02-07T01:48:23.236Z,87.82
2019-02-07T01:49:57.674Z,79.83
2019-02-07T01:51:32.108Z,58.68
2019-02-07T01:53:06.683Z,82.65
2019-02-07T01:54:41.076Z,87.62
2019-02-07T01:56:15.462Z,74.87
2019-02-07T01:57:49.828Z,68.37
2019-02-07T01:59:24.192Z,67.82
2019-02-07T02:00:58.589Z,76.28
2019-02-07T02:04:13.800Z,77.20
2019-02-07T02:05:48.117Z,70.60
2019-02-07T02:07:22.512Z,74.35
2019-02-07T02:08:56.882Z,75.35
2019-02-07T02:10:31.242Z,69.75
2019-02-07T02:12:05.612Z,74.85
2019-02-07T02:13:40.127Z,75.22
2019-02-07T02:15:24.002Z,74.00
2019-02-07T02:16:52.329Z,60.30
2019-02-07T02:18:26.683Z,77.15
2019-02-07T02:20:01.052Z,67.72
2019-02-07T02:21:35.428Z,65.53
2019-02-07T02:23:09.802Z,51.73
2019-02-07T02:24:45.273Z,45.48
2019-02-07T02:26:19.817Z,59.90
2019-02-07T02:27:54.292Z,44.45
2019-02-07T02:29:28.651Z,66.67
2019-02-07T02:31:04.627Z,52.90
2019-02-07T02:32:38.993Z,57.38
2019-02-07T02:34:13.462Z,59.42
2019-02-07T02:35:47.839Z,39.77
2019-02-07T02:37:22.204Z,57.57
2019-02-07T02:38:56.667Z,46.07
2019-02-07T02:40:31.062Z,62.08
2019-02-07T02:42:05.437Z,66.67
2019-02-07T02:43:40.179Z,48.08
2019-02-07T02:45:19.627Z,65.43
2019-02-07T02:46:53.986Z,53.60
2019-02-07T02:48:28.431Z,53.48
2019-02-07T02:50:04.029Z,63.95
2019-02-07T02:51:38.768Z,55.57
2019-02-07T02:53:13.225Z,66.03
2019-02-07T02:54:48.761Z,63.20
2019-02-07T02:56:23.205Z,66.28
2019-02-07T02:57:57.570Z,65.87
2019-02-07T02:59:31.973Z,62.08
2019-02-07T03:01:23.219Z,65.72
2019-02-07T03:03:01.971Z,57.10
2019-02-07T03:04:40.658Z,60.90
2019-02-07T03:06:22.601Z,58.13
2019-02-07T03:08:15.163Z,66.07
2019-02-07T03:10:07.399Z,56.17
2019-02-07T03:11:43.408Z,62.83
2019-02-07T03:13:36.070Z,59.93
2019-02-07T03:15:12.335Z,66.37
2019-02-07T03:16:58.481Z,58.07
2019-02-07T03:18:34.501Z,60.48
2019-02-07T03:20:16.671Z,63.42
2019-02-07T03:22:08.643Z,60.03
2019-02-07T03:23:47.836Z,51.63
2019-02-07T03:25:41.953Z,60.63
2019-02-07T03:27:23.969Z,58.03
2019-02-07T03:29:08.813Z,61.07
2019-02-07T03:30:57.125Z,61.70
2019-02-07T03:32:33.135Z,58.43
2019-02-07T03:34:09.444Z,55.27
2019-02-07T03:35:51.291Z,55.43
2019-02-07T03:37:30.003Z,63.98
2019-02-07T03:39:11.500Z,55.87
2019-02-07T03:40:50.488Z,57.67
2019-02-07T03:42:28.944Z,60.60
2019-02-07T03:44:10.782Z,58.33
2019-02-07T03:46:03.361Z,55.50
2019-02-07T03:47:57.442Z,54.03
2019-02-07T03:49:33.449Z,43.93
2019-02-07T03:51:14.929Z,59.83
2019-02-07T03:52:50.957Z,55.50
2019-02-07T03:54:29.746Z,48.40
2019-02-07T03:56:05.821Z,54.48
2019-02-07T03:57:44.829Z,53.63
2019-02-07T03:59:29.569Z,42.60
2019-02-07T04:01:20.888Z,55.95
2019-02-07T04:02:57.004Z,56.92
2019-02-07T04:06:33.618Z,43.50
2019-02-07T04:08:15.589Z,47.78
2019-02-07T04:09:51.621Z,48.73
2019-02-07T04:11:42.661Z,52.75
2019-02-07T04:13:21.717Z,45.17
2019-02-07T04:15:00.701Z,55.15
2019-02-07T04:16:37.154Z,46.63
2019-02-07T04:18:31.305Z,50.30
2019-02-07T04:20:15.567Z,46.10
2019-02-07T04:21:54.599Z,51.95
2019-02-07T04:23:47.370Z,60.58
2019-02-07T04:25:26.102Z,57.60
2019-02-07T04:27:14.366Z,61.48
2019-02-07T04:28:53.297Z,57.27
2019-02-07T04:30:47.088Z,63.25
2019-02-07T04:32:41.562Z,53.80
2019-02-07T04:34:26.541Z,64.05
2019-02-07T04:36:02.580Z,64.10
2019-02-07T04:37:56.501Z,56.73
2019-02-07T04:39:35.621Z,59.48
2019-02-07T04:41:23.901Z,57.95
2019-02-07T04:43:12.417Z,66.37
2019-02-07T04:44:48.449Z,61.60
2019-02-07T04:46:41.101Z,63.87
2019-02-07T04:48:32.133Z,62.30
2019-02-07T04:50:16.467Z,69.05
2019-02-07T04:51:55.142Z,73.28
2019-02-07T04:53:37.117Z,72.15
2019-02-07T04:55:29.441Z,73.55
2019-02-07T04:57:20.220Z,64.42
2019-02-07T04:59:12.417Z,68.00
2019-02-07T05:00:51.143Z,64.95
2019-02-07T05:02:27.215Z,68.92
2019-02-07T05:04:19.814Z,66.95
2019-02-07T05:06:13.695Z,61.45
2019-02-07T05:08:00.262Z,64.45
2019-02-07T05:09:36.742Z,58.75
2019-02-07T05:11:27.885Z,64.10
2019-02-07T05:13:06.842Z,46.18
2019-02-07T05:14:48.917Z,68.22
2019-02-07T05:16:24.953Z,60.17
2019-02-07T05:18:00.962Z,44.75
2019-02-07T05:19:54.901Z,64.10
2019-02-07T05:21:30.996Z,65.40
2019-02-07T05:23:12.883Z,75.15
2019-02-07T05:24:51.796Z,68.20
2019-02-07T05:26:33.337Z,74.35
2019-02-07T05:28:12.125Z,62.05
2019-02-07T05:30:04.425Z,58.85
2019-02-07T05:31:46.478Z,65.22
2019-02-07T05:33:31.689Z,69.97
2019-02-07T05:35:11.093Z,60.03
2019-02-07T05:36:53.380Z,63.90
2019-02-07T05:38:45.536Z,60.55
2019-02-07T05:40:21.547Z,64.82
2019-02-07T05:42:00.540Z,60.43
2019-02-07T05:43:39.529Z,52.85
2019-02-07T05:45:21.536Z,68.17
2019-02-07T05:46:57.525Z,59.75
2019-02-07T05:48:45.952Z,58.20
2019-02-07T05:50:24.801Z,65.52
2019-02-07T05:52:06.523Z,72.45
2019-02-07T05:53:45.432Z,62.50
2019-02-07T05:55:30.395Z,69.63
2019-02-07T05:57:09.108Z,71.12
2019-02-07T05:59:03.245Z,71.47
2019-02-07T06:00:54.666Z,51.40
2019-02-07T06:02:30.787Z,67.75
2019-02-07T06:04:12.897Z,70.78
2019-02-07T06:05:48.901Z,65.72
2019-02-07T06:07:27.898Z,50.95
2019-02-07T06:09:20.270Z,65.37
2019-02-07T06:10:59.126Z,60.20
2019-02-07T06:12:36.644Z,58.87
2019-02-07T06:14:12.693Z,65.62
2019-02-07T06:15:56.962Z,55.48
2019-02-07T06:17:34.958Z,63.15
2019-02-07T06:19:20.042Z,68.02
2019-02-07T06:21:05.084Z,62.27
2019-02-07T06:22:53.028Z,57.98
2019-02-07T06:24:36.378Z,71.42
2019-02-07T06:26:14.795Z,68.87
2019-02-07T06:27:57.032Z,74.30
2019-02-07T06:29:33.074Z,72.92
2019-02-07T06:31:12.025Z,70.73
2019-02-07T06:33:04.309Z,75.43
2019-02-07T06:34:49.521Z,75.20
2019-02-07T06:36:42.042Z,70.33
2019-02-07T06:38:30.337Z,64.97
2019-02-07T06:40:26.549Z,70.17
2019-02-07T06:42:02.553Z,76.77
2019-02-07T06:43:43.387Z,87.27
2019-02-07T06:45:35.906Z,83.50
2019-02-07T06:47:29.773Z,63.70
2019-02-07T06:49:25.041Z,73.13
2019-02-07T06:51:09.965Z,71.93
2019-02-07T06:52:46.268Z,73.97
2019-02-07T06:54:31.388Z,68.77
2019-02-07T06:56:07.395Z,68.50
2019-02-07T06:57:46.358Z,76.67
2019-02-07T06:59:28.209Z,65.67
2019-02-07T07:01:04.218Z,69.93
2019-02-07T07:02:46.284Z,74.65
2019-02-07T07:11:49.600Z,52.40
2019-02-07T07:13:27.019Z,59.00
2019-02-07T07:15:10.091Z,59.30
2019-02-07T07:16:49.897Z,58.07
2019-02-07T07:18:43.339Z,54.10
2019-02-07T07:20:39.016Z,47.37
2019-02-07T07:22:25.457Z,52.27
2019-02-07T07:27:08.782Z,53.03
2019-02-07T07:29:02.290Z,57.53
2019-02-07T07:30:54.999Z,62.20
2019-02-07T07:32:32.422Z,100.90
2019-02-07T07:34:12.501Z,81.03
2019-02-07T07:35:51.113Z,78.60
2019-02-07T07:37:40.409Z,68.93
2019-02-07T07:40:27.785Z,86.20
2019-02-07T07:42:06.255Z,80.93
2019-02-07T07:43:59.707Z,87.33
2019-02-07T07:45:41.064Z,104.87
2019-02-07T07:47:19.269Z,111.47
2019-02-07T07:49:12.338Z,97.20
2019-02-07T07:50:50.426Z,79.20
2019-02-07T07:52:43.925Z,76.07
2019-02-07T07:54:29.837Z,85.73
2019-02-07T07:56:11.481Z,79.37
2019-02-07T07:58:04.720Z,74.87
2019-02-07T07:59:50.946Z,84.60
2019-02-07T08:01:44.153Z,84.87
2019-02-07T08:03:21.315Z,101.97
2019-02-07T08:05:07.323Z,95.33
2019-02-07T08:06:54.644Z,96.83
2019-02-07T08:08:50.243Z,84.13
2019-02-07T08:10:27.401Z,85.13
2019-02-07T08:12:06.615Z,68.53
2019-02-07T08:13:52.880Z,81.30
2019-02-07T08:15:38.905Z,79.40
2019-02-07T08:17:18.562Z,76.67
2019-02-07T08:18:58.337Z,79.53
2019-02-07T08:20:38.321Z,71.60
2019-02-07T08:22:16.791Z,75.20
2019-02-07T08:23:56.856Z,74.23
2019-02-07T08:25:43.326Z,124.27
2019-02-07T08:27:36.771Z,132.43
2019-02-07T08:29:13.914Z,134.13
2019-02-07T08:30:52.198Z,119.87
2019-02-07T08:32:45.647Z,71.33
2019-02-07T08:34:25.788Z,57.97
2019-02-07T08:36:18.038Z,71.57
2019-02-07T08:38:04.395Z,60.20
2019-02-07T08:39:57.764Z,92.27
2019-02-07T08:41:35.989Z,60.53
2019-02-07T08:43:31.435Z,60.00
2019-02-07T08:45:28.567Z,64.83
2019-02-07T08:47:05.698Z,55.67
2019-02-07T08:48:44.347Z,64.17
2019-02-07T08:50:25.608Z,62.27
2019-02-07T08:52:07.326Z,57.80
2019-02-07T08:53:47.477Z,64.60
2019-02-07T08:55:24.598Z,67.07
2019-02-07T08:57:07.820Z,59.33
2019-02-07T08:58:43.067Z,64.17
2019-02-07T09:00:19.831Z,62.20
2019-02-07T09:01:59.797Z,65.57
2019-02-07T09:03:42.679Z,62.27
2019-02-07T09:05:31.944Z,62.63
2019-02-07T09:07:15.114Z,52.33
2019-02-07T09:08:55.205Z,63.10
2019-02-07T09:10:38.332Z,47.57
2019-02-07T09:12:15.514Z,57.17
2019-02-07T09:13:53.663Z,58.00
2019-02-07T09:15:32.813Z,58.30
2019-02-07T09:17:09.942Z,68.03
2019-02-07T09:18:47.931Z,49.57
2019-02-07T09:20:25.058Z,52.83
2019-02-07T09:22:23.699Z,54.83
2019-02-07T09:23:57.763Z,63.10
2019-02-07T09:25:34.905Z,59.77
2019-02-07T09:27:16.401Z,68.87
2019-02-07T09:28:56.336Z,55.33
2019-02-07T09:30:40.582Z,51.43
2019-02-07T09:32:19.209Z,55.93
2019-02-07T09:33:59.086Z,68.87
2019-02-07T09:35:44.025Z,66.67
2019-02-07T09:37:22.268Z,79.50
2019-02-07T09:39:08.282Z,54.20
2019-02-07T09:40:48.493Z,65.27
2019-02-07T09:42:28.313Z,61.93
2019-02-07T09:44:20.491Z,67.70
2019-02-07T09:46:14.024Z,59.70
2019-02-07T09:48:03.267Z,52.87
2019-02-07T09:49:42.959Z,66.33
2019-02-07T09:51:20.086Z,66.60
2019-02-07T09:53:23.756Z,53.47
2019-02-07T09:54:54.101Z,57.57
2019-02-07T09:56:35.606Z,53.77
2019-02-07T09:58:18.736Z,54.37
2019-02-07T10:00:11.173Z,57.50
2019-02-07T10:01:48.308Z,59.50
2019-02-07T10:03:31.720Z,56.90
2019-02-07T10:05:11.861Z,37.83
2019-02-07T10:06:47.151Z,51.97
2019-02-07T10:08:40.262Z,58.83
2019-02-07T10:10:33.499Z,49.07
2019-02-07T10:12:26.798Z,54.00
2019-02-07T10:14:16.071Z,51.57
2019-02-07T10:16:02.258Z,53.20
2019-02-07T10:17:48.337Z,53.70
2019-02-07T10:19:25.472Z,55.37
2019-02-07T10:21:11.760Z,54.20
2019-02-07T10:23:02.021Z,51.47
2019-02-07T10:24:45.994Z,48.33
2019-02-07T10:26:23.176Z,49.97
2019-02-07T10:28:16.423Z,53.77
2019-02-07T10:30:09.582Z,58.67
2019-02-07T10:31:44.835Z,56.73
2019-02-07T10:33:25.072Z,55.10
2019-02-07T10:35:03.017Z,54.10
2019-02-07T10:36:42.580Z,52.03
2019-02-07T10:38:28.918Z,60.40
2019-02-07T10:40:12.185Z,51.20
2019-02-07T10:42:01.549Z,56.43
2019-02-07T10:43:41.104Z,68.73
2019-02-07T10:45:19.097Z,54.97
2019-02-07T10:49:15.523Z,57.10
2019-02-07T10:51:07.807Z,57.23
2019-02-07T10:52:47.659Z,60.43
2019-02-07T10:54:36.748Z,58.07
2019-02-07T10:56:17.663Z,56.53
2019-02-07T10:58:06.613Z,43.87
2019-02-07T11:00:01.389Z,49.60
2019-02-07T11:01:38.526Z,49.43
2019-02-07T11:03:15.651Z,46.30
2019-02-07T11:04:55.522Z,46.50
2019-02-07T11:06:32.845Z,42.03
2019-02-07T11:08:11.038Z,39.53
2019-02-07T11:09:54.790Z,43.03
2019-02-07T11:11:31.917Z,30.53
2019-02-07T11:13:24.858Z,36.33
2019-02-07T11:15:00.297Z,35.67
2019-02-07T11:16:37.939Z,30.83
2019-02-07T11:18:15.077Z,41.57
2019-02-07T11:20:08.332Z,37.23
2019-02-07T11:23:45.759Z,38.13
2019-02-07T11:25:38.752Z,35.77
2019-02-07T11:27:29.653Z,40.67
2019-02-07T11:29:13.051Z,27.20
2019-02-07T11:30:50.181Z,36.97
2019-02-07T11:32:27.320Z,31.97
2019-02-07T11:34:10.503Z,29.03
2019-02-07T11:35:45.833Z,23.90
2019-02-07T11:37:21.116Z,29.97
2019-02-07T11:39:04.707Z,25.87
2019-02-07T11:40:54.518Z,29.93
2019-02-07T11:42:33.157Z,27.40
2019-02-07T11:44:12.104Z,30.53
2019-02-07T11:45:59.155Z,26.30
2019-02-07T11:47:37.999Z,31.90
2019-02-07T11:49:23.865Z,31.77
2019-02-07T11:51:01.269Z,28.30
2019-02-07T11:52:39.893Z,39.07
2019-02-07T11:54:27.369Z,37.00
2019-02-07T11:56:19.561Z,32.47
2019-02-07T11:57:57.897Z,29.57
2019-02-07T11:59:48.197Z,31.20
2019-02-07T12:01:35.541Z,36.80
2019-02-07T12:03:28.762Z,35.77
2019-02-07T12:05:06.753Z,36.23
2019-02-07T12:06:59.910Z,38.40
2019-02-07T12:08:47.490Z,29.80
2019-02-07T12:10:27.594Z,30.77
2019-02-07T12:12:06.215Z,24.83
2019-02-07T12:13:52.144Z,41.27
2019-02-07T12:15:27.419Z,25.93
2019-02-07T12:17:11.795Z,41.50
2019-02-07T12:18:54.938Z,33.00
2019-02-07T12:20:45.458Z,32.33
2019-02-07T12:22:38.674Z,38.73
2019-02-07T12:24:29.094Z,37.20
2019-02-07T12:26:12.359Z,37.47
2019-02-07T12:27:49.510Z,41.57
2019-02-07T12:29:38.670Z,27.57
2019-02-07T12:31:25.014Z,31.67
2019-02-07T12:33:20.442Z,35.43
2019-02-07T12:35:00.571Z,36.43
2019-02-07T12:36:37.777Z,37.53
2019-02-07T12:38:20.561Z,45.83
2019-02-07T12:40:04.890Z,36.13
2019-02-07T12:41:45.005Z,89.13
2019-02-07T12:43:30.711Z,37.87
2019-02-07T12:45:10.837Z,36.17
2019-02-07T12:46:46.115Z,36.10
2019-02-07T12:48:24.367Z,28.70
2019-02-07T12:50:14.671Z,34.20
2019-02-07T12:52:08.366Z,37.43
2019-02-07T12:53:51.481Z,32.30
2019-02-07T12:55:31.624Z,35.83
2019-02-07T12:57:17.616Z,35.77
2019-02-07T12:59:03.510Z,37.27
2019-02-07T13:00:46.607Z,35.63
2019-02-07T13:02:32.771Z,35.97
2019-02-07T13:04:24.986Z,37.37
2019-02-07T13:06:02.113Z,37.77
2019-02-07T13:07:46.758Z,37.07
2019-02-07T13:09:38.867Z,36.70
2019-02-07T13:11:22.266Z,44.30
2019-02-07T13:13:05.306Z,41.43
2019-02-07T13:14:54.880Z,41.30
2019-02-07T13:16:37.843Z,47.87
2019-02-07T13:18:23.826Z,46.60
2019-02-07T13:20:17.086Z,33.87
2019-02-07T13:22:00.004Z,40.90
2019-02-07T13:23:44.348Z,44.33
2019-02-07T13:25:33.768Z,41.73
2019-02-07T13:27:20.695Z,43.63
2019-02-07T13:29:14.185Z,41.13
2019-02-07T13:30:51.313Z,44.37
2019-02-07T13:32:46.854Z,44.27
2019-02-07T13:34:40.123Z,46.20
2019-02-07T13:36:23.085Z,38.87
2019-02-07T13:38:18.570Z,37.70
2019-02-07T13:39:56.199Z,45.47
2019-02-07T13:41:31.449Z,43.43
2019-02-07T13:43:14.200Z,47.87
2019-02-07T13:44:53.858Z,48.17
2019-02-07T13:46:39.696Z,43.90
2019-02-07T13:48:19.513Z,41.27
2019-02-07T13:49:56.635Z,42.07
2019-02-07T13:51:43.843Z,41.87
2019-02-07T13:53:37.541Z,40.53
2019-02-07T13:55:15.227Z,37.07
2019-02-07T13:56:50.501Z,42.03
2019-02-07T13:58:27.704Z,51.37
2019-02-07T14:00:07.591Z,49.00
2019-02-07T14:01:50.753Z,40.03
2019-02-07T14:03:43.878Z,38.13
2019-02-07T14:05:38.657Z,39.87
2019-02-07T14:07:28.092Z,45.10
2019-02-07T14:09:23.178Z,42.60
2019-02-07T14:11:16.911Z,43.30
2019-02-07T14:12:54.054Z,35.80
2019-02-07T14:14:32.021Z,32.93
2019-02-07T14:16:13.523Z,33.03
2019-02-07T14:17:50.883Z,29.53
2019-02-07T14:19:33.940Z,39.83
2019-02-07T14:21:27.399Z,38.47
2019-02-07T14:23:04.527Z,33.70
2019-02-07T14:24:48.065Z,27.67
2019-02-07T14:26:23.317Z,36.50
2019-02-07T14:27:58.593Z,44.57
2019-02-07T14:29:52.099Z,47.70
2019-02-07T14:31:34.985Z,40.13
2019-02-07T14:33:12.119Z,44.80
2019-02-07T14:34:50.340Z,47.07
2019-02-07T14:36:31.166Z,43.13
2019-02-07T14:38:08.364Z,39.67
2019-02-07T14:40:04.639Z,44.87
2019-02-07T14:41:59.864Z,42.10
2019-02-07T14:43:52.309Z,37.03
2019-02-07T14:45:32.193Z,27.43
2019-02-07T14:47:07.670Z,27.83
2019-02-07T14:48:45.228Z,27.90
2019-02-07T14:50:20.816Z,32.70
2019-02-07T14:51:56.330Z,40.97
2019-02-07T14:53:31.810Z,46.60
2019-02-07T14:55:11.442Z,80.33
2019-02-07T14:56:47.305Z,38.50
2019-02-07T14:58:22.837Z,48.23
2019-02-07T14:59:58.310Z,25.23
2019-02-07T15:01:33.829Z,104.80
2019-02-07T15:03:16.954Z,93.40
2019-02-07T15:04:52.695Z,80.47
2019-02-07T15:06:28.191Z,67.13
2019-02-07T15:08:05.182Z,73.87
2019-02-07T15:09:40.737Z,83.63
2019-02-07T15:11:16.215Z,77.87
2019-02-07T15:12:51.980Z,84.50
2019-02-07T15:14:27.566Z,70.93
2019-02-07T15:16:03.122Z,68.87
2019-02-07T15:17:38.605Z,74.23
2019-02-07T15:19:14.086Z,64.13
2019-02-07T15:20:49.601Z,76.50
2019-02-07T15:22:25.161Z,61.40
2019-02-07T15:24:00.805Z,57.00
2019-02-07T15:25:36.293Z,44.73
2019-02-07T15:27:11.858Z,57.83
2019-02-07T15:28:47.350Z,57.93
2019-02-07T15:30:23.106Z,59.20
2019-02-07T15:31:58.641Z,56.03
2019-02-07T15:33:34.506Z,52.10
2019-02-07T15:35:23.523Z,57.73
2019-02-07T15:36:59.111Z,73.17
2019-02-07T15:38:34.602Z,74.70
2019-02-07T15:40:14.763Z,179.77
2019-02-07T15:41:50.256Z,175.47
2019-02-07T15:43:25.764Z,127.57
2019-02-07T15:45:01.251Z,112.63
2019-02-07T15:46:36.740Z,89.73
2019-02-07T15:48:13.437Z,95.30
2019-02-07T15:49:48.915Z,116.50
2019-02-07T15:51:24.406Z,83.20
2019-02-07T15:53:03.004Z,123.83
2019-02-07T15:54:38.928Z,118.00
2019-02-07T15:56:14.415Z,128.20
2019-02-07T15:57:49.912Z,150.73
2019-02-07T15:59:33.177Z,100.63
2019-02-07T16:01:25.382Z,114.93
2019-02-07T16:03:03.267Z,82.03
2019-02-07T16:04:39.215Z,112.07
2019-02-07T16:06:14.706Z,98.67
2019-02-07T16:07:50.194Z,163.43
2019-02-07T16:09:25.702Z,145.73
2019-02-07T16:11:01.212Z,151.33
2019-02-07T16:12:36.716Z,99.10
2019-02-07T16:14:12.266Z,105.50
2019-02-07T16:15:47.748Z,90.47
2019-02-07T16:17:23.249Z,150.03
2019-02-07T16:18:58.738Z,72.97
2019-02-07T16:20:34.237Z,95.47
2019-02-07T16:22:09.807Z,116.73
2019-02-07T16:23:45.314Z,124.20
2019-02-07T16:25:21.105Z,114.17
2019-02-07T16:26:56.693Z,125.97
2019-02-07T16:28:32.187Z,106.43
2019-02-07T16:30:23.240Z,127.53
2019-02-07T16:31:58.751Z,90.93
2019-02-07T16:33:34.248Z,50.13
2019-02-07T16:35:09.920Z,52.13
2019-02-07T16:36:45.868Z,68.43
2019-02-07T16:38:21.433Z,58.40
2019-02-07T16:39:58.437Z,55.70
2019-02-07T16:41:33.982Z,35.23
2019-02-07T16:43:09.516Z,36.17
2019-02-07T16:44:45.017Z,59.33
2019-02-07T16:46:20.500Z,80.53
2019-02-07T16:47:56.054Z,41.57
2019-02-07T16:49:31.539Z,51.40
2019-02-07T16:51:07.028Z,86.67
2019-02-07T16:52:44.035Z,85.00
2019-02-07T16:54:19.722Z,80.00
2019-02-07T16:55:55.228Z,70.33
2019-02-07T16:57:30.979Z,90.53
2019-02-07T16:59:06.481Z,88.43
2019-02-07T17:00:41.961Z,86.50
2019-02-07T17:02:17.455Z,116.80
2019-02-07T17:03:52.966Z,83.20
2019-02-07T17:05:29.020Z,84.93
2019-02-07T17:07:04.589Z,69.90
2019-02-07T17:08:40.085Z,88.53
2019-02-07T17:10:23.052Z,86.83
2019-02-07T17:12:00.899Z,98.20
2019-02-07T17:13:35.819Z,76.73
2019-02-07T17:15:17.891Z,81.90
2019-02-07T17:16:53.387Z,77.50
2019-02-07T17:18:28.895Z,66.37
2019-02-07T17:20:14.756Z,82.30
2019-02-07T17:21:48.447Z,93.73
2019-02-07T17:23:25.448Z,78.43
2019-02-07T17:25:01.349Z,71.73
2019-02-07T17:26:37.936Z,76.80
2019-02-07T17:28:13.501Z,81.87
2019-02-07T17:29:48.985Z,70.93
2019-02-07T17:31:24.505Z,88.03
2019-02-07T17:33:00.056Z,86.33
2019-02-07T17:34:35.615Z,93.93
2019-02-07T17:36:11.104Z,78.33
2019-02-07T17:37:46.727Z,98.27
2019-02-07T17:39:22.255Z,87.50
2019-02-07T17:40:57.750Z,96.27
2019-02-07T17:42:33.242Z,72.27
2019-02-07T17:44:08.724Z,87.57
2019-02-07T17:45:44.592Z,86.13
2019-02-07T17:47:21.702Z,74.07
2019-02-07T17:48:57.192Z,100.40
2019-02-07T17:50:38.920Z,94.83
2019-02-07T17:52:14.413Z,91.60
2019-02-07T17:53:50.299Z,86.20
2019-02-07T17:55:26.740Z,80.57
2019-02-07T17:57:02.253Z,91.63
2019-02-07T17:58:39.435Z,90.50
2019-02-07T18:00:44.997Z,94.27
2019-02-07T18:02:20.489Z,87.97
2019-02-07T18:03:55.979Z,89.83
2019-02-07T18:05:31.464Z,92.07
2019-02-07T18:07:07.733Z,104.47
2019-02-07T18:08:43.498Z,110.67
2019-02-07T18:10:19.549Z,122.27
2019-02-07T18:11:55.048Z,104.67
2019-02-07T18:13:30.553Z,95.23
2019-02-07T18:15:08.675Z,85.13
2019-02-07T18:16:44.173Z,67.27
2019-02-07T18:18:19.728Z,86.50
2019-02-07T18:19:55.265Z,87.33
2019-02-07T18:21:34.191Z,115.93
2019-02-07T18:23:08.160Z,96.83
2019-02-07T18:24:43.653Z,93.93
2019-02-07T18:26:19.180Z,106.23
2019-02-07T18:27:54.735Z,119.07
2019-02-07T18:29:30.499Z,130.30
2019-02-07T18:31:06.063Z,138.40
2019-02-07T18:32:43.111Z,189.53
2019-02-07T18:34:18.606Z,192.73
2019-02-07T18:35:54.097Z,131.27
2019-02-07T18:37:29.676Z,142.40
2019-02-07T18:39:08.358Z,109.30
2019-02-07T18:40:43.850Z,112.37
2019-02-07T18:42:19.339Z,115.10
2019-02-07T18:43:54.821Z,106.70
2019-02-07T18:45:30.325Z,111.73
2019-02-07T18:47:05.827Z,114.33
2019-02-07T18:48:41.347Z,117.83
2019-02-07T18:50:32.468Z,127.23
2019-02-07T18:52:07.973Z,123.33
2019-02-07T18:53:43.839Z,114.60
2019-02-07T18:55:19.334Z,102.57
2019-02-07T18:56:56.353Z,101.73
2019-02-07T18:58:31.842Z,98.60
2019-02-07T19:00:20.643Z,104.23
2019-02-07T19:01:56.294Z,107.07
2019-02-07T19:03:33.274Z,96.97
2019-02-07T19:05:14.147Z,104.17
2019-02-07T19:06:49.637Z,116.67
2019-02-07T19:08:25.145Z,214.37
2019-02-07T19:10:00.681Z,128.90
2019-02-07T19:11:36.174Z,115.30
2019-02-07T19:13:11.844Z,145.47
2019-02-07T19:14:48.962Z,133.60
2019-02-07T19:16:26.350Z,98.07
2019-02-07T19:18:01.842Z,131.23
2019-02-07T19:19:38.856Z,154.43
2019-02-07T19:21:14.351Z,149.60
2019-02-07T19:22:49.910Z,117.90
2019-02-07T19:24:25.399Z,119.70
2019-02-07T19:26:00.888Z,116.27
2019-02-07T19:27:36.383Z,119.10
2019-02-07T19:29:11.904Z,113.17
2019-02-07T19:30:47.398Z,110.40
2019-02-07T19:32:24.391Z,117.90
2019-02-07T19:34:00.138Z,114.47
2019-02-07T19:35:35.772Z,126.77
2019-02-07T19:37:11.343Z,144.00
2019-02-07T19:38:46.833Z,174.43
2019-02-07T19:40:23.078Z,174.13
2019-02-07T19:41:58.656Z,180.17
2019-02-07T19:43:34.261Z,235.87
2019-02-07T19:45:14.583Z,260.47
2019-02-07T19:46:50.207Z,212.20
2019-02-07T19:48:25.801Z,152.57
2019-02-07T19:50:01.328Z,170.70
2019-02-07T19:51:36.943Z,203.77
2019-02-07T19:53:12.621Z,194.77
2019-02-07T19:54:48.234Z,127.93
2019-02-07T19:56:23.815Z,126.53
2019-02-07T19:57:59.462Z,112.13
2019-02-07T19:59:34.956Z,114.73
2019-02-07T20:01:12.250Z,130.27
2019-02-07T20:02:48.206Z,126.00
2019-02-07T20:04:24.083Z,99.40
2019-02-07T20:05:59.590Z,102.23
2019-02-07T20:07:35.087Z,107.73
2019-02-07T20:09:12.128Z,100.50
2019-02-07T20:10:47.589Z,101.70
2019-02-07T20:12:23.549Z,94.43
2019-02-07T20:13:59.365Z,100.50
2019-02-07T20:15:38.987Z,103.67
2019-02-07T20:17:14.615Z,103.50
2019-02-07T20:18:50.138Z,100.43
2019-02-07T20:20:25.679Z,105.73
2019-02-07T20:22:01.262Z,94.53
2019-02-07T20:23:39.648Z,104.40
2019-02-07T20:25:17.585Z,106.63
2019-02-07T20:26:53.312Z,99.23
2019-02-07T20:28:28.871Z,103.40
2019-02-07T20:30:08.004Z,97.13
2019-02-07T20:31:43.827Z,108.43
2019-02-07T20:33:19.330Z,100.30
2019-02-07T20:34:56.355Z,98.07
2019-02-07T20:36:31.853Z,90.93
2019-02-07T20:38:08.729Z,88.43
2019-02-07T20:39:45.884Z,94.77
2019-02-07T20:41:21.382Z,94.03
2019-02-07T20:42:59.238Z,101.23
2019-02-07T20:44:34.719Z,92.77
2019-02-07T20:46:10.458Z,95.37
2019-02-07T20:47:45.955Z,102.03
2019-02-07T20:49:21.451Z,107.30
2019-02-07T20:50:57.726Z,110.30
2019-02-07T20:52:33.834Z,118.27
2019-02-07T20:54:09.451Z,130.43
2019-02-07T20:55:45.205Z,120.70
2019-02-07T20:57:20.838Z,106.60
2019-02-07T20:58:59.211Z,105.57
2019-02-07T21:00:39.885Z,114.33
2019-02-07T21:02:16.882Z,101.60
2019-02-07T21:03:52.394Z,106.57
2019-02-07T21:05:29.815Z,105.47
2019-02-07T21:07:05.517Z,111.63
2019-02-07T21:08:41.216Z,107.27
2019-02-07T21:10:27.371Z,105.77
2019-02-07T21:12:06.047Z,106.47
2019-02-07T21:13:41.619Z,101.37
2019-02-07T21:15:20.093Z,109.73
2019-02-07T21:16:55.761Z,105.17
2019-02-07T21:18:31.543Z,98.97
2019-02-07T21:20:12.027Z,105.73
2019-02-07T21:21:47.687Z,102.73
2019-02-07T21:23:23.350Z,106.63
2019-02-07T21:24:59.244Z,105.57
2019-02-07T21:26:36.489Z,112.10
2019-02-07T21:28:12.105Z,114.87
2019-02-07T21:29:47.810Z,115.40
2019-02-07T21:31:23.473Z,116.63
2019-02-07T21:32:59.134Z,131.63
2019-02-07T21:34:34.783Z,128.57
2019-02-07T21:36:10.383Z,136.77
2019-02-07T21:37:45.952Z,135.77
2019-02-07T21:39:21.488Z,133.00